Terminal Aerodrome Forecast
Issued by NWS

Home | Current Version | Previous Version | Text Only | Print | Product List | Glossary On
Versions: 1 2 3 4 5 6 7 8 9 10 11 12 13 14
000
FTUS45 KGGW 301916 AAA
TAFOLF
TAF AMD
KOLF 301916Z 3019/3118 29008KT 6SM -SHRA BR BKN045 OVC070
     FM302000 29010KT 6SM -SHRA VCTS BKN045CB OVC070
     FM302200 28011KT P6SM -SHRA OVC045
     FM310600 28012KT P6SM -SHRA BKN025
     FM310900 30012KT P6SM -SHRA BKN010
     FM311500 34014KT P6SM -SHRA OVC015=

USA.gov is the U.S. government's official web portal to all federal, state and local government web resources and services.